createdAt,value
2017-08-17T00:01:57.410Z,6.93
2017-08-17T00:04:24.934Z,5.47
2017-08-17T00:06:52.483Z,6.13
2017-08-17T00:09:20.000Z,4.60
2017-08-17T00:11:47.548Z,5.60
2017-08-17T00:14:15.070Z,6.20
2017-08-17T00:16:42.643Z,5.00
2017-08-17T00:19:10.195Z,5.60
2017-08-17T00:21:37.713Z,6.30
2017-08-17T00:24:05.264Z,5.80
2017-08-17T00:26:32.781Z,6.57
2017-08-17T00:29:00.339Z,5.47
2017-08-17T00:31:27.878Z,5.73
2017-08-17T00:33:55.397Z,5.50
2017-08-17T00:36:22.950Z,5.30
2017-08-17T00:38:50.581Z,5.97
2017-08-17T00:41:18.140Z,4.77
2017-08-17T00:43:45.657Z,5.77
2017-08-17T00:46:13.214Z,5.40
2017-08-17T00:48:40.736Z,5.30
2017-08-17T00:51:08.254Z,6.03
2017-08-17T00:53:35.809Z,5.90
2017-08-17T00:56:03.320Z,5.70
2017-08-17T00:58:30.954Z,5.50
2017-08-17T01:00:58.470Z,5.80
2017-08-17T01:03:26.020Z,6.00
2017-08-17T01:05:53.541Z,5.60
2017-08-17T01:08:21.063Z,6.20
2017-08-17T01:10:48.618Z,5.83
2017-08-17T01:13:16.138Z,5.50
2017-08-17T01:15:43.685Z,5.70
2017-08-17T01:18:11.210Z,5.10
2017-08-17T01:20:38.769Z,6.50
2017-08-17T01:23:06.283Z,5.73
2017-08-17T01:25:33.862Z,5.40
2017-08-17T01:28:01.417Z,5.70
2017-08-17T01:30:28.934Z,5.17
2017-08-17T01:32:56.498Z,5.37
2017-08-17T01:35:24.036Z,5.27
2017-08-17T01:37:51.611Z,6.40
2017-08-17T01:40:19.124Z,5.90
2017-08-17T01:42:46.638Z,5.40
2017-08-17T01:45:14.189Z,4.97
2017-08-17T01:47:41.738Z,6.40
2017-08-17T01:50:09.313Z,5.30
2017-08-17T01:52:36.862Z,5.80
2017-08-17T01:55:04.445Z,5.30
2017-08-17T01:57:31.969Z,6.40
2017-08-17T01:59:59.487Z,5.43
2017-08-17T02:02:27.054Z,5.60
2017-08-17T02:04:54.581Z,5.70
2017-08-17T02:07:22.140Z,5.47
2017-08-17T02:09:49.695Z,5.93
2017-08-17T02:12:17.257Z,6.33
2017-08-17T02:14:44.798Z,6.40
2017-08-17T02:17:12.315Z,6.10
2017-08-17T02:19:39.877Z,5.57
2017-08-17T02:22:07.406Z,6.13
2017-08-17T02:24:34.953Z,6.30
2017-08-17T02:27:02.494Z,6.17
2017-08-17T02:29:30.061Z,6.37
2017-08-17T02:31:57.574Z,5.93
2017-08-17T02:34:25.106Z,5.53
2017-08-17T02:36:52.665Z,5.20
2017-08-17T02:39:20.184Z,6.13
2017-08-17T02:41:47.747Z,5.80
2017-08-17T02:44:15.371Z,5.73
2017-08-17T02:46:43.194Z,6.10
2017-08-17T02:49:10.750Z,5.80
2017-08-17T02:51:38.259Z,5.27
2017-08-17T02:54:05.821Z,5.30
2017-08-17T02:56:33.338Z,6.30
2017-08-17T02:59:00.860Z,6.60
2017-08-17T03:01:28.421Z,5.60
2017-08-17T03:03:55.949Z,5.67
2017-08-17T03:06:23.530Z,5.83
2017-08-17T03:08:51.037Z,5.40
2017-08-17T03:11:18.549Z,5.13
2017-08-17T03:13:47.036Z,5.47
2017-08-17T03:16:14.558Z,5.20
2017-08-17T03:18:42.170Z,6.00
2017-08-17T03:21:09.709Z,6.50
2017-08-17T03:23:37.294Z,11.67
2017-08-17T03:26:04.817Z,12.77
2017-08-17T03:28:32.357Z,10.30
2017-08-17T03:30:59.924Z,7.23
2017-08-17T03:33:27.463Z,6.67
2017-08-17T03:35:55.029Z,5.97
2017-08-17T03:38:22.562Z,5.83
2017-08-17T03:40:50.116Z,5.70
2017-08-17T03:43:17.647Z,5.67
2017-08-17T03:45:45.172Z,5.10
2017-08-17T03:48:12.731Z,6.27
2017-08-17T03:50:40.246Z,6.30
2017-08-17T03:53:07.797Z,6.10
2017-08-17T03:55:35.328Z,6.47
2017-08-17T03:58:02.921Z,6.47
2017-08-17T04:00:30.477Z,5.40
2017-08-17T04:02:57.999Z,6.53
2017-08-17T04:05:25.552Z,6.60
2017-08-17T04:07:53.079Z,8.20
2017-08-17T04:10:20.650Z,6.70
2017-08-17T04:12:48.177Z,7.50
2017-08-17T04:15:15.694Z,7.10
2017-08-17T04:17:43.243Z,7.43
2017-08-17T04:20:10.856Z,7.70
2017-08-17T04:22:38.408Z,6.70
2017-08-17T04:25:05.918Z,6.83
2017-08-17T04:27:33.482Z,7.40
2017-08-17T04:30:00.997Z,6.13
2017-08-17T04:32:28.515Z,7.43
2017-08-17T04:34:56.079Z,7.33
2017-08-17T04:37:23.594Z,7.50
2017-08-17T04:39:51.158Z,7.30
2017-08-17T04:42:18.675Z,7.00
2017-08-17T04:44:46.349Z,7.20
2017-08-17T04:47:13.870Z,6.17
2017-08-17T04:49:41.385Z,5.77
2017-08-17T04:52:12.304Z,6.50
2017-08-17T04:54:39.833Z,5.93
2017-08-17T04:57:24.758Z,5.80
2017-08-17T04:59:52.283Z,6.57
2017-08-17T05:02:20.691Z,5.77
2017-08-17T05:04:48.228Z,5.90
2017-08-17T05:07:15.763Z,5.37
2017-08-17T05:09:43.314Z,5.60
2017-08-17T05:12:10.834Z,4.63
2017-08-17T05:14:38.386Z,5.20
2017-08-17T05:17:05.914Z,5.73
2017-08-17T05:19:33.587Z,4.50
2017-08-17T05:22:01.108Z,5.23
2017-08-17T05:24:28.708Z,4.83
2017-08-17T05:26:56.266Z,4.23
2017-08-17T05:29:23.792Z,4.70
2017-08-17T05:31:51.364Z,4.83
2017-08-17T05:34:18.882Z,4.40
2017-08-17T05:36:46.396Z,4.50
2017-08-17T05:39:13.943Z,5.20
2017-08-17T05:41:41.462Z,4.70
2017-08-17T05:44:09.042Z,4.20
2017-08-17T05:46:36.557Z,5.47
2017-08-17T05:49:04.073Z,4.50
2017-08-17T05:51:31.627Z,4.93
2017-08-17T05:53:59.150Z,4.77
2017-08-17T05:56:26.722Z,4.63
2017-08-17T05:58:54.248Z,5.30
2017-08-17T06:01:21.771Z,4.50
2017-08-17T06:03:49.317Z,4.30
2017-08-17T06:06:16.833Z,4.37
2017-08-17T06:08:44.380Z,4.87
2017-08-17T06:11:11.906Z,4.03
2017-08-17T06:13:39.470Z,4.60
2017-08-17T06:16:06.989Z,4.07
2017-08-17T06:18:34.504Z,4.17
2017-08-17T06:21:02.057Z,4.20
2017-08-17T06:23:29.581Z,4.20
2017-08-17T06:25:57.134Z,3.70
2017-08-17T06:28:24.650Z,4.60
2017-08-17T06:30:52.207Z,4.37
2017-08-17T06:33:19.724Z,4.13
2017-08-17T06:35:47.237Z,4.07
2017-08-17T06:38:14.791Z,4.17
2017-08-17T06:40:42.312Z,4.20
2017-08-17T06:43:09.893Z,4.47
2017-08-17T06:45:37.531Z,3.60
2017-08-17T06:48:05.085Z,3.60
2017-08-17T06:50:32.631Z,3.40
2017-08-17T06:53:01.778Z,3.37
2017-08-17T06:55:30.352Z,4.03
2017-08-17T06:57:59.055Z,4.07
2017-08-17T07:00:27.670Z,3.73
2017-08-17T07:02:56.444Z,3.40
2017-08-17T07:05:25.019Z,4.00
2017-08-17T07:07:53.194Z,3.83
2017-08-17T07:10:22.278Z,4.77
2017-08-17T07:12:51.361Z,3.80
2017-08-17T07:15:20.359Z,3.17
2017-08-17T07:17:49.267Z,3.30
2017-08-17T07:20:18.234Z,3.67
2017-08-17T07:22:46.224Z,3.57
2017-08-17T07:25:15.360Z,4.23
2017-08-17T07:27:44.185Z,3.83
2017-08-17T07:30:13.179Z,4.30
2017-08-17T07:32:42.246Z,3.80
2017-08-17T07:35:10.084Z,3.40
2017-08-17T07:37:39.067Z,3.43
2017-08-17T07:40:07.122Z,3.53
2017-08-17T07:42:35.901Z,3.50
2017-08-17T07:45:03.762Z,4.00
2017-08-17T07:47:32.206Z,3.60
2017-08-17T07:50:00.745Z,3.90
2017-08-17T07:52:29.722Z,3.70
2017-08-17T07:54:58.882Z,3.73
2017-08-17T07:57:27.325Z,3.57
2017-08-17T07:59:56.186Z,3.67
2017-08-17T08:02:25.154Z,3.30
2017-08-17T08:04:53.444Z,3.80
2017-08-17T08:07:22.039Z,3.20
2017-08-17T08:09:50.518Z,4.10
2017-08-17T08:12:19.276Z,3.63
2017-08-17T08:14:48.123Z,3.07
2017-08-17T08:17:15.674Z,3.90
2017-08-17T08:19:43.188Z,3.57
2017-08-17T08:22:10.780Z,3.50
2017-08-17T08:24:38.300Z,3.57
2017-08-17T08:27:05.817Z,3.43
2017-08-17T08:29:33.366Z,3.40
2017-08-17T08:32:00.879Z,2.97
2017-08-17T08:34:29.615Z,3.23
2017-08-17T08:36:58.082Z,2.97
2017-08-17T08:39:27.147Z,3.33
2017-08-17T08:41:55.895Z,3.27
2017-08-17T08:44:24.924Z,3.97
2017-08-17T08:46:53.794Z,3.10
2017-08-17T08:49:22.573Z,3.90
2017-08-17T08:51:50.960Z,3.23
2017-08-17T08:54:20.217Z,3.70
2017-08-17T08:56:49.305Z,3.53
2017-08-17T08:59:18.116Z,3.50
2017-08-17T09:01:46.863Z,3.10
2017-08-17T09:04:15.727Z,3.17
2017-08-17T09:06:44.694Z,3.00
2017-08-17T09:09:12.583Z,2.87
2017-08-17T09:11:41.494Z,3.50
2017-08-17T09:14:10.157Z,2.80
2017-08-17T09:16:39.092Z,3.10
2017-08-17T09:19:07.787Z,3.00
2017-08-17T09:21:36.769Z,3.40
2017-08-17T09:24:05.321Z,2.90
2017-08-17T09:26:32.870Z,2.90
2017-08-17T09:29:00.485Z,3.00
2017-08-17T09:31:28.077Z,3.00
2017-08-17T09:33:55.635Z,3.27
2017-08-17T09:36:23.200Z,3.50
2017-08-17T09:38:50.751Z,2.90
2017-08-17T09:41:18.270Z,2.93
2017-08-17T09:43:45.877Z,3.70
2017-08-17T09:46:13.434Z,3.00
2017-08-17T09:48:40.976Z,3.37
2017-08-17T09:51:08.516Z,3.00
2017-08-17T09:53:36.033Z,2.77
2017-08-17T09:56:03.627Z,3.50
2017-08-17T09:58:31.185Z,3.33
2017-08-17T10:00:58.761Z,2.83
2017-08-17T10:03:26.277Z,3.33
2017-08-17T10:05:53.792Z,2.27
2017-08-17T10:08:21.344Z,2.97
2017-08-17T10:10:48.866Z,2.80
2017-08-17T10:13:16.422Z,3.00
2017-08-17T10:15:43.950Z,2.83
2017-08-17T10:18:11.501Z,2.97
2017-08-17T10:20:39.021Z,3.10
2017-08-17T10:23:06.542Z,3.37
2017-08-17T10:25:34.093Z,2.80
2017-08-17T10:28:01.610Z,2.80
2017-08-17T10:30:29.166Z,2.60
2017-08-17T10:32:56.708Z,2.67
2017-08-17T10:35:24.269Z,3.10
2017-08-17T10:37:51.788Z,3.30
2017-08-17T10:40:19.307Z,3.10
2017-08-17T10:42:46.859Z,2.67
2017-08-17T10:45:14.377Z,2.70
2017-08-17T10:47:41.947Z,2.73
2017-08-17T10:50:09.460Z,2.73
2017-08-17T10:52:37.026Z,3.10
2017-08-17T10:55:04.544Z,3.20
2017-08-17T10:57:32.062Z,2.83
2017-08-17T10:59:59.606Z,2.97
2017-08-17T11:02:27.122Z,2.63
2017-08-17T11:04:54.672Z,3.03
2017-08-17T11:07:22.284Z,3.10
2017-08-17T11:09:49.846Z,3.20
2017-08-17T11:12:17.369Z,2.97
2017-08-17T11:14:44.885Z,2.87
2017-08-17T11:17:12.438Z,2.80
2017-08-17T11:19:39.953Z,2.80
2017-08-17T11:22:07.541Z,2.90
2017-08-17T11:24:35.061Z,2.20
2017-08-17T11:27:02.651Z,2.80
2017-08-17T11:29:30.194Z,3.30
2017-08-17T11:31:57.781Z,2.90
2017-08-17T11:34:25.332Z,2.83
2017-08-17T11:36:52.900Z,2.40
2017-08-17T11:39:20.458Z,2.63
2017-08-17T11:41:47.977Z,2.67
2017-08-17T11:44:15.550Z,2.93
2017-08-17T11:46:43.064Z,2.83
2017-08-17T11:49:10.581Z,3.00
2017-08-17T11:51:38.158Z,2.70
2017-08-17T11:54:05.676Z,2.80
2017-08-17T11:56:33.276Z,2.50
2017-08-17T11:59:00.836Z,2.83
2017-08-17T12:01:28.349Z,2.77
2017-08-17T12:03:55.901Z,3.10
2017-08-17T12:06:23.516Z,2.80
2017-08-17T12:08:51.073Z,2.87
2017-08-17T12:11:18.636Z,2.37
2017-08-17T12:13:46.156Z,2.63
2017-08-17T12:16:13.709Z,3.00
2017-08-17T12:18:41.315Z,2.50
2017-08-17T12:21:08.938Z,3.30
2017-08-17T12:23:36.531Z,2.77
2017-08-17T12:26:04.098Z,3.37
2017-08-17T12:28:31.656Z,2.83
2017-08-17T12:30:59.173Z,3.10
2017-08-17T12:33:26.733Z,2.63
2017-08-17T12:35:54.245Z,2.90
2017-08-17T12:38:21.791Z,3.07
2017-08-17T12:40:49.352Z,2.93
2017-08-17T12:43:16.917Z,2.93
2017-08-17T12:45:44.473Z,2.77
2017-08-17T12:48:12.151Z,2.70
2017-08-17T12:50:39.706Z,3.20
2017-08-17T12:53:07.217Z,3.20
2017-08-17T12:55:34.787Z,3.33
2017-08-17T12:58:02.313Z,3.07
2017-08-17T13:00:29.877Z,3.00
2017-08-17T13:02:57.393Z,3.37
2017-08-17T13:05:24.950Z,3.00
2017-08-17T13:07:52.510Z,3.00
2017-08-17T13:10:20.028Z,3.20
2017-08-17T13:12:47.575Z,3.13
2017-08-17T13:15:15.104Z,2.90
2017-08-17T13:17:42.722Z,3.23
2017-08-17T13:20:10.240Z,3.00
2017-08-17T13:22:37.750Z,3.07
2017-08-17T13:25:05.328Z,3.50
2017-08-17T13:27:32.854Z,2.87
2017-08-17T13:30:00.455Z,2.87
2017-08-17T13:32:27.980Z,3.23
2017-08-17T13:34:55.505Z,2.77
2017-08-17T13:37:23.048Z,3.13
2017-08-17T13:39:50.587Z,3.07
2017-08-17T13:42:18.165Z,3.13
2017-08-17T13:44:45.683Z,2.87
2017-08-17T13:47:13.202Z,3.40
2017-08-17T13:49:40.756Z,3.43
2017-08-17T13:52:08.270Z,2.40
2017-08-17T13:54:35.844Z,2.60
2017-08-17T13:57:03.361Z,3.10
2017-08-17T13:59:30.967Z,3.10
2017-08-17T14:01:58.524Z,3.00
2017-08-17T14:04:26.048Z,3.23
2017-08-17T14:06:53.643Z,3.13
2017-08-17T14:09:21.176Z,2.70
2017-08-17T14:11:48.701Z,3.90
2017-08-17T14:14:16.252Z,2.60
2017-08-17T14:16:43.767Z,3.30
2017-08-17T14:19:11.316Z,2.80
2017-08-17T14:21:38.830Z,3.00
2017-08-17T14:24:06.460Z,2.90
2017-08-17T14:26:33.978Z,2.90
2017-08-17T14:29:01.493Z,3.10
2017-08-17T14:31:29.053Z,2.90
2017-08-17T14:33:56.600Z,2.67
2017-08-17T14:36:24.161Z,4.10
2017-08-17T14:38:53.717Z,2.80
2017-08-17T14:41:21.280Z,2.97
2017-08-17T14:43:48.804Z,3.27
2017-08-17T14:46:16.319Z,3.10
2017-08-17T14:48:43.870Z,2.93
2017-08-17T14:51:11.389Z,3.30
2017-08-17T14:53:38.936Z,2.73
2017-08-17T14:56:06.477Z,2.83
2017-08-17T14:58:34.027Z,2.60
2017-08-17T15:01:01.545Z,3.53
2017-08-17T15:03:29.062Z,3.60
2017-08-17T15:05:56.613Z,2.63
2017-08-17T15:08:24.138Z,3.20
2017-08-17T15:10:51.685Z,3.10
2017-08-17T15:13:19.273Z,3.10
2017-08-17T15:15:46.847Z,3.50
2017-08-17T15:18:14.368Z,2.80
2017-08-17T15:20:41.884Z,3.00
2017-08-17T15:23:09.444Z,3.10
2017-08-17T15:25:36.960Z,2.97
2017-08-17T15:28:04.520Z,2.73
2017-08-17T15:30:32.047Z,3.03
2017-08-17T15:32:59.624Z,2.50
2017-08-17T15:35:27.153Z,3.17
2017-08-17T15:37:54.673Z,2.77
2017-08-17T15:40:22.226Z,3.17
2017-08-17T15:42:49.742Z,2.73
2017-08-17T15:45:17.318Z,2.60
2017-08-17T15:47:44.833Z,2.60
2017-08-17T15:50:12.345Z,3.00
2017-08-17T15:52:39.893Z,2.90
2017-08-17T15:55:07.412Z,2.80
2017-08-17T15:57:34.969Z,3.30
2017-08-17T16:00:02.484Z,2.93
2017-08-17T16:02:30.051Z,2.60
2017-08-17T16:04:57.567Z,3.43
2017-08-17T16:07:25.081Z,3.00
2017-08-17T16:09:52.631Z,2.90
2017-08-17T16:12:20.150Z,2.70
2017-08-17T16:14:47.698Z,3.00
2017-08-17T16:17:15.213Z,3.20
2017-08-17T16:19:42.786Z,2.67
2017-08-17T16:22:10.298Z,2.80
2017-08-17T16:24:37.818Z,3.20
2017-08-17T16:27:05.386Z,3.00
2017-08-17T16:29:32.908Z,3.00
2017-08-17T16:32:00.496Z,2.57
2017-08-17T16:34:28.018Z,2.77
2017-08-17T16:36:55.534Z,2.90
2017-08-17T16:39:23.082Z,3.00
2017-08-17T16:41:50.607Z,2.80
2017-08-17T16:44:18.201Z,2.90
2017-08-17T16:46:45.741Z,3.27
2017-08-17T16:49:13.257Z,2.70
2017-08-17T16:51:40.801Z,2.23
2017-08-17T16:54:08.318Z,2.40
2017-08-17T16:56:35.865Z,2.77
2017-08-17T16:59:03.381Z,3.00
2017-08-17T17:01:30.949Z,2.37
2017-08-17T17:03:58.473Z,2.97
2017-08-17T17:06:25.994Z,2.80
2017-08-17T17:08:53.553Z,2.50
2017-08-17T17:11:21.080Z,2.70
2017-08-17T17:13:48.621Z,2.90
2017-08-17T17:16:16.143Z,2.90
2017-08-17T17:18:43.729Z,2.73
2017-08-17T17:21:11.248Z,2.90
2017-08-17T17:23:38.764Z,3.17
2017-08-17T17:26:06.349Z,2.90
2017-08-17T17:28:33.857Z,2.40
2017-08-17T17:31:01.408Z,2.53
2017-08-17T17:33:29.226Z,3.37
2017-08-17T17:35:56.778Z,2.60
2017-08-17T17:38:24.292Z,3.33
2017-08-17T17:40:51.801Z,2.93
2017-08-17T17:43:19.350Z,2.70
2017-08-17T17:45:46.876Z,3.07
2017-08-17T17:48:14.606Z,3.20
2017-08-17T17:50:43.474Z,3.13
2017-08-17T17:53:11.461Z,2.83
2017-08-17T17:55:40.160Z,3.10
2017-08-17T17:58:07.788Z,3.33
2017-08-17T18:00:35.346Z,2.77
2017-08-17T18:03:02.866Z,3.30
2017-08-17T18:05:30.593Z,3.70
2017-08-17T18:07:58.103Z,3.10
2017-08-17T18:10:25.620Z,3.13
2017-08-17T18:12:53.175Z,3.40
2017-08-17T18:15:20.698Z,3.40
2017-08-17T18:17:48.271Z,5.70
2017-08-17T18:20:15.807Z,4.17
2017-08-17T18:22:43.330Z,4.10
2017-08-17T18:25:10.886Z,3.40
2017-08-17T18:27:38.411Z,4.20
2017-08-17T18:30:05.955Z,3.90
2017-08-17T18:32:33.482Z,4.37
2017-08-17T18:35:01.055Z,4.90
2017-08-17T18:37:28.579Z,4.20
2017-08-17T18:39:56.094Z,4.30
2017-08-17T18:42:23.651Z,4.50
2017-08-17T18:44:51.194Z,4.90
2017-08-17T18:47:18.739Z,5.00
2017-08-17T18:49:46.260Z,6.20
2017-08-17T18:52:13.812Z,5.30
2017-08-17T18:54:41.330Z,5.20
2017-08-17T18:57:08.901Z,5.30
2017-08-17T18:59:36.425Z,4.73
2017-08-17T19:02:03.944Z,5.13
2017-08-17T19:04:31.486Z,5.10
2017-08-17T19:06:59.015Z,6.20
2017-08-17T19:09:26.561Z,5.97
2017-08-17T19:11:54.079Z,5.40
2017-08-17T19:14:21.639Z,6.60
2017-08-17T19:16:49.161Z,6.60
2017-08-17T19:19:16.677Z,6.97
2017-08-17T19:21:44.237Z,6.20
2017-08-17T19:24:11.765Z,6.67
2017-08-17T19:26:39.321Z,5.50
2017-08-17T19:29:06.840Z,6.20
2017-08-17T19:31:34.485Z,6.73
2017-08-17T19:34:02.545Z,6.80
2017-08-17T19:36:30.505Z,6.10
2017-08-17T19:38:58.361Z,6.43
2017-08-17T19:41:26.490Z,7.10
2017-08-17T19:43:54.745Z,6.07
2017-08-17T19:46:22.779Z,7.27
2017-08-17T19:48:50.581Z,7.73
2017-08-17T19:51:18.534Z,6.63
2017-08-17T19:53:46.504Z,6.83
2017-08-17T19:56:15.040Z,6.13
2017-08-17T19:58:42.627Z,6.27
2017-08-17T20:01:10.176Z,6.77
2017-08-17T20:03:37.705Z,5.83
2017-08-17T20:06:05.278Z,5.90
2017-08-17T20:08:32.797Z,6.20
2017-08-17T20:11:00.315Z,5.73
2017-08-17T20:13:27.865Z,5.90
2017-08-17T20:15:55.384Z,5.13
2017-08-17T20:18:22.941Z,5.37
2017-08-17T20:20:50.460Z,5.60
2017-08-17T20:23:18.013Z,5.60
2017-08-17T20:25:45.794Z,6.20
2017-08-17T20:28:13.386Z,6.73
2017-08-17T20:30:41.031Z,5.43
2017-08-17T20:33:09.111Z,5.97
2017-08-17T20:35:37.680Z,5.93
2017-08-17T20:38:05.552Z,5.27
2017-08-17T20:40:33.834Z,4.80
2017-08-17T20:43:01.410Z,5.00
2017-08-17T20:45:29.615Z,5.37
2017-08-17T20:47:57.736Z,4.83
2017-08-17T20:50:25.909Z,5.20
2017-08-17T20:52:53.504Z,5.70
2017-08-17T20:55:21.542Z,7.70
2017-08-17T20:57:49.112Z,6.13
2017-08-17T21:02:51.465Z,4.70
2017-08-17T21:05:19.155Z,4.73
2017-08-17T21:07:46.919Z,5.17
2017-08-17T21:10:14.811Z,6.13
2017-08-17T21:12:43.021Z,5.30
2017-08-17T21:15:11.009Z,5.30
2017-08-17T21:17:38.799Z,5.43
2017-08-17T21:20:06.404Z,4.83
2017-08-17T21:22:34.117Z,5.70
2017-08-17T21:25:01.816Z,5.97
2017-08-17T21:27:29.637Z,5.33
2017-08-17T21:29:57.455Z,5.37
2017-08-17T21:32:25.468Z,5.90
2017-08-17T21:34:55.246Z,6.00
2017-08-17T21:37:23.828Z,6.00
2017-08-17T21:39:51.376Z,5.57
2017-08-17T21:42:18.909Z,5.77
2017-08-17T21:44:46.473Z,5.90
2017-08-17T21:47:14.068Z,5.67
2017-08-17T21:49:41.621Z,6.70
2017-08-17T21:52:09.137Z,6.00
2017-08-17T21:54:36.706Z,5.37
2017-08-17T21:57:04.234Z,5.50
2017-08-17T21:59:31.750Z,5.60
2017-08-17T22:01:59.312Z,6.03
2017-08-17T22:04:26.834Z,5.53
2017-08-17T22:06:54.384Z,4.97
2017-08-17T22:09:21.906Z,4.40
2017-08-17T22:11:49.564Z,5.87
2017-08-17T22:14:17.086Z,4.43
2017-08-17T22:16:44.682Z,5.20
2017-08-17T22:19:12.276Z,5.60
2017-08-17T22:21:39.794Z,5.10
2017-08-17T22:24:07.355Z,4.53
2017-08-17T22:26:34.949Z,4.60
2017-08-17T22:29:02.508Z,6.23
2017-08-17T22:31:30.023Z,5.50
2017-08-17T22:33:57.593Z,6.30
2017-08-17T22:36:25.210Z,7.43
2017-08-17T22:38:52.738Z,6.60
2017-08-17T22:41:20.334Z,6.67
2017-08-17T22:43:47.888Z,6.77
2017-08-17T22:46:15.449Z,6.20
2017-08-17T22:48:42.961Z,6.70
2017-08-17T22:51:10.526Z,6.30
2017-08-17T22:53:38.041Z,6.37
2017-08-17T22:56:05.558Z,6.30
2017-08-17T22:58:33.121Z,5.77
2017-08-17T23:01:00.647Z,6.07
2017-08-17T23:03:28.201Z,5.83
2017-08-17T23:05:55.724Z,6.20
2017-08-17T23:08:23.276Z,5.80
2017-08-17T23:10:50.792Z,5.70
2017-08-17T23:13:18.333Z,5.80
2017-08-17T23:15:45.880Z,6.77
2017-08-17T23:18:13.405Z,6.97
2017-08-17T23:20:40.974Z,7.10
2017-08-17T23:23:08.512Z,6.90
2017-08-17T23:25:36.078Z,6.73
2017-08-17T23:28:03.593Z,7.20
2017-08-17T23:30:31.125Z,6.80
2017-08-17T23:32:58.681Z,6.00
2017-08-17T23:35:26.239Z,6.20
2017-08-17T23:37:53.802Z,5.70
2017-08-17T23:40:21.318Z,5.43
2017-08-17T23:42:48.850Z,5.60
2017-08-17T23:45:16.408Z,6.30
2017-08-17T23:47:43.932Z,6.13
2017-08-17T23:50:11.495Z,6.17
2017-08-17T23:52:39.009Z,6.27
2017-08-17T23:55:06.573Z,6.83
2017-08-17T23:57:34.110Z,6.53
